sensor_id;sensor_type;location;lat;lon;timestamp;temperature;humidity
44851;DHT22;30583;48.714;9.386;2023-02-10T00:00:03;-3276.10;68.20
44851;DHT22;30583;48.714;9.386;2023-02-10T00:02:29;-3276.00;68.70
44851;DHT22;30583;48.714;9.386;2023-02-10T00:04:55;-3276.00;68.30
44851;DHT22;30583;48.714;9.386;2023-02-10T00:07:20;-3275.90;69.20
44851;DHT22;30583;48.714;9.386;2023-02-10T00:09:47;-3276.00;68.70
44851;DHT22;30583;48.714;9.386;2023-02-10T00:12:13;-3276.00;69.20
44851;DHT22;30583;48.714;9.386;2023-02-10T00:14:39;-3275.80;69.40
44851;DHT22;30583;48.714;9.386;2023-02-10T00:17:04;-3275.50;69.80
44851;DHT22;30583;48.714;9.386;2023-02-10T00:19:30;-3275.80;69.60
44851;DHT22;30583;48.714;9.386;2023-02-10T00:21:57;-3276.00;68.90
44851;DHT22;30583;48.714;9.386;2023-02-10T00:24:23;-3276.20;68.10
44851;DHT22;30583;48.714;9.386;2023-02-10T00:26:49;-3276.00;68.30
44851;DHT22;30583;48.714;9.386;2023-02-10T00:29:16;-3275.50;70.50
44851;DHT22;30583;48.714;9.386;2023-02-10T00:31:42;-3275.90;69.20
44851;DHT22;30583;48.714;9.386;2023-02-10T00:34:16;-3276.10;68.30
44851;DHT22;30583;48.714;9.386;2023-02-10T00:36:42;-3276.10;68.40
44851;DHT22;30583;48.714;9.386;2023-02-10T00:39:12;-3276.20;67.40
44851;DHT22;30583;48.714;9.386;2023-02-10T00:41:38;-3276.00;68.30
44851;DHT22;30583;48.714;9.386;2023-02-10T00:44:05;-3275.90;68.00
44851;DHT22;30583;48.714;9.386;2023-02-10T00:46:30;-3275.90;68.90
44851;DHT22;30583;48.714;9.386;2023-02-10T00:48:56;-3275.80;68.70
44851;DHT22;30583;48.714;9.386;2023-02-10T00:51:21;-3276.10;68.90
44851;DHT22;30583;48.714;9.386;2023-02-10T00:53:47;-3276.00;68.00
44851;DHT22;30583;48.714;9.386;2023-02-10T00:56:15;-3276.00;67.80
44851;DHT22;30583;48.714;9.386;2023-02-10T00:58:41;-3275.90;68.00
44851;DHT22;30583;48.714;9.386;2023-02-10T01:01:06;-3276.00;68.10
44851;DHT22;30583;48.714;9.386;2023-02-10T01:03:32;-3276.10;67.60
44851;DHT22;30583;48.714;9.386;2023-02-10T01:05:58;-3276.10;67.40
44851;DHT22;30583;48.714;9.386;2023-02-10T01:08:23;-3275.90;67.50
44851;DHT22;30583;48.714;9.386;2023-02-10T01:10:49;-3275.60;68.50
44851;DHT22;30583;48.714;9.386;2023-02-10T01:13:15;-3275.20;70.20
44851;DHT22;30583;48.714;9.386;2023-02-10T01:15:45;-3275.50;69.50
44851;DHT22;30583;48.714;9.386;2023-02-10T01:18:11;-3275.60;68.50
44851;DHT22;30583;48.714;9.386;2023-02-10T01:20:41;-3275.70;68.40
44851;DHT22;30583;48.714;9.386;2023-02-10T01:23:08;-3275.90;67.60
44851;DHT22;30583;48.714;9.386;2023-02-10T01:25:35;-3275.80;68.60
44851;DHT22;30583;48.714;9.386;2023-02-10T01:28:02;-3275.60;68.70
44851;DHT22;30583;48.714;9.386;2023-02-10T01:30:28;-3275.50;69.30
44851;DHT22;30583;48.714;9.386;2023-02-10T01:32:54;-3275.30;70.10
44851;DHT22;30583;48.714;9.386;2023-02-10T01:35:19;-3275.40;69.60
44851;DHT22;30583;48.714;9.386;2023-02-10T01:37:45;-3275.50;69.30
44851;DHT22;30583;48.714;9.386;2023-02-10T01:40:11;-3275.40;68.70
44851;DHT22;30583;48.714;9.386;2023-02-10T01:42:36;-3275.20;69.20
44851;DHT22;30583;48.714;9.386;2023-02-10T01:45:13;-3275.00;70.10
44851;DHT22;30583;48.714;9.386;2023-02-10T01:47:40;-3275.00;70.10
44851;DHT22;30583;48.714;9.386;2023-02-10T01:50:07;-3275.20;70.00
44851;DHT22;30583;48.714;9.386;2023-02-10T01:52:33;-3275.00;69.80
44851;DHT22;30583;48.714;9.386;2023-02-10T01:55:03;-3275.10;70.10
44851;DHT22;30583;48.714;9.386;2023-02-10T01:57:30;-3275.30;69.80
44851;DHT22;30583;48.714;9.386;2023-02-10T01:59:57;-3275.50;68.90
44851;DHT22;30583;48.714;9.386;2023-02-10T02:02:24;-3275.30;69.50
44851;DHT22;30583;48.714;9.386;2023-02-10T02:04:58;-3275.40;69.90
44851;DHT22;30583;48.714;9.386;2023-02-10T02:07:27;-3275.70;69.00
44851;DHT22;30583;48.714;9.386;2023-02-10T02:09:55;-3275.60;69.50
44851;DHT22;30583;48.714;9.386;2023-02-10T02:15:37;-3275.10;70.80
44851;DHT22;30583;48.714;9.386;2023-02-10T02:21:09;-3275.40;70.00
44851;DHT22;30583;48.714;9.386;2023-02-10T02:26:49;-3275.30;69.50
44851;DHT22;30583;48.714;9.386;2023-02-10T02:32:39;-3275.20;70.00
44851;DHT22;30583;48.714;9.386;2023-02-10T02:35:12;-3275.20;70.00
44851;DHT22;30583;48.714;9.386;2023-02-10T02:37:42;-3275.30;69.50
44851;DHT22;30583;48.714;9.386;2023-02-10T02:40:10;-3275.50;68.90
44851;DHT22;30583;48.714;9.386;2023-02-10T02:42:36;-3275.40;68.10
44851;DHT22;30583;48.714;9.386;2023-02-10T02:48:04;-3275.40;68.80
44851;DHT22;30583;48.714;9.386;2023-02-10T02:51:00;-3275.20;68.60
44851;DHT22;30583;48.714;9.386;2023-02-10T02:57:20;-3275.10;69.90
44851;DHT22;30583;48.714;9.386;2023-02-10T02:59:30;-3275.00;69.70
44851;DHT22;30583;48.714;9.386;2023-02-10T03:01:58;-3275.00;68.80
44851;DHT22;30583;48.714;9.386;2023-02-10T03:04:31;-3275.10;68.70
44851;DHT22;30583;48.714;9.386;2023-02-10T03:06:59;-3274.50;70.50
44851;DHT22;30583;48.714;9.386;2023-02-10T03:09:25;-3274.50;70.50
44851;DHT22;30583;48.714;9.386;2023-02-10T03:11:50;-3274.70;70.70
44851;DHT22;30583;48.714;9.386;2023-02-10T03:14:16;-3274.40;70.80
44851;DHT22;30583;48.714;9.386;2023-02-10T03:16:41;-3274.70;70.50
44851;DHT22;30583;48.714;9.386;2023-02-10T03:19:07;-3274.70;70.30
44851;DHT22;30583;48.714;9.386;2023-02-10T03:21:33;-3274.60;69.90
44851;DHT22;30583;48.714;9.386;2023-02-10T03:23:58;-3274.80;69.30
44851;DHT22;30583;48.714;9.386;2023-02-10T03:26:27;-3274.80;69.60
44851;DHT22;30583;48.714;9.386;2023-02-10T03:28:52;-3274.60;69.80
44851;DHT22;30583;48.714;9.386;2023-02-10T03:31:18;-3274.90;69.10
44851;DHT22;30583;48.714;9.386;2023-02-10T03:33:43;-3274.60;69.90
44851;DHT22;30583;48.714;9.386;2023-02-10T03:36:09;-3274.50;70.50
44851;DHT22;30583;48.714;9.386;2023-02-10T03:38:35;-3274.60;70.60
44851;DHT22;30583;48.714;9.386;2023-02-10T03:41:00;-3275.00;69.70
44851;DHT22;30583;48.714;9.386;2023-02-10T03:43:26;-3274.30;70.10
44851;DHT22;30583;48.714;9.386;2023-02-10T03:45:52;-3274.70;70.40
44851;DHT22;30583;48.714;9.386;2023-02-10T03:48:17;-3274.70;70.30
44851;DHT22;30583;48.714;9.386;2023-02-10T03:50:44;-3274.70;70.20
44851;DHT22;30583;48.714;9.386;2023-02-10T03:53:10;-3274.60;71.10
44851;DHT22;30583;48.714;9.386;2023-02-10T03:55:36;-3274.50;70.90
44851;DHT22;30583;48.714;9.386;2023-02-10T03:58:02;-3274.60;70.70
44851;DHT22;30583;48.714;9.386;2023-02-10T04:00:28;-3274.40;72.00
44851;DHT22;30583;48.714;9.386;2023-02-10T04:02:54;-3274.90;70.90
44851;DHT22;30583;48.714;9.386;2023-02-10T04:05:20;-3274.80;70.30
44851;DHT22;30583;48.714;9.386;2023-02-10T04:07:46;-3274.80;70.90
44851;DHT22;30583;48.714;9.386;2023-02-10T04:10:12;-3274.70;70.70
44851;DHT22;30583;48.714;9.386;2023-02-10T04:12:38;-3274.90;70.40
44851;DHT22;30583;48.714;9.386;2023-02-10T04:15:05;-3274.50;71.20
44851;DHT22;30583;48.714;9.386;2023-02-10T04:17:30;-3274.50;71.40
44851;DHT22;30583;48.714;9.386;2023-02-10T04:19:56;-3274.40;71.80
44851;DHT22;30583;48.714;9.386;2023-02-10T04:22:22;-3274.60;71.10
44851;DHT22;30583;48.714;9.386;2023-02-10T04:24:47;-3274.70;70.70
44851;DHT22;30583;48.714;9.386;2023-02-10T04:27:13;-3274.40;70.90
44851;DHT22;30583;48.714;9.386;2023-02-10T04:29:38;-3274.20;72.40
44851;DHT22;30583;48.714;9.386;2023-02-10T04:32:06;-3274.30;71.50
44851;DHT22;30583;48.714;9.386;2023-02-10T04:34:32;-3274.20;71.80
44851;DHT22;30583;48.714;9.386;2023-02-10T04:36:57;-3273.90;72.10
44851;DHT22;30583;48.714;9.386;2023-02-10T04:39:23;-3273.80;73.00
44851;DHT22;30583;48.714;9.386;2023-02-10T04:41:48;-3274.20;71.60
44851;DHT22;30583;48.714;9.386;2023-02-10T04:44:14;-3274.30;71.30
44851;DHT22;30583;48.714;9.386;2023-02-10T04:46:39;-3274.70;70.10
44851;DHT22;30583;48.714;9.386;2023-02-10T04:49:05;-3274.80;69.60
44851;DHT22;30583;48.714;9.386;2023-02-10T04:51:31;-3274.30;70.80
44851;DHT22;30583;48.714;9.386;2023-02-10T04:53:57;-3274.10;70.80
44851;DHT22;30583;48.714;9.386;2023-02-10T04:56:22;-3274.60;70.80
44851;DHT22;30583;48.714;9.386;2023-02-10T04:58:48;-3274.20;70.20
44851;DHT22;30583;48.714;9.386;2023-02-10T05:01:13;-3274.20;71.00
44851;DHT22;30583;48.714;9.386;2023-02-10T05:03:39;-3274.40;70.20
44851;DHT22;30583;48.714;9.386;2023-02-10T05:06:09;-3274.30;70.70
44851;DHT22;30583;48.714;9.386;2023-02-10T05:08:35;-3273.90;71.00
44851;DHT22;30583;48.714;9.386;2023-02-10T05:11:06;-3274.40;70.70
44851;DHT22;30583;48.714;9.386;2023-02-10T05:13:32;-3274.30;70.40
44851;DHT22;30583;48.714;9.386;2023-02-10T05:15:58;-3274.50;70.00
44851;DHT22;30583;48.714;9.386;2023-02-10T05:18:23;-3274.20;70.30
44851;DHT22;30583;48.714;9.386;2023-02-10T05:20:49;-3273.90;70.90
44851;DHT22;30583;48.714;9.386;2023-02-10T05:23:15;-3274.00;71.40
44851;DHT22;30583;48.714;9.386;2023-02-10T05:25:40;-3274.10;71.50
44851;DHT22;30583;48.714;9.386;2023-02-10T05:28:06;-3274.20;70.80
44851;DHT22;30583;48.714;9.386;2023-02-10T05:30:32;-3274.30;70.60
44851;DHT22;30583;48.714;9.386;2023-02-10T05:32:57;-3274.10;70.40
44851;DHT22;30583;48.714;9.386;2023-02-10T05:35:23;-3273.90;71.00
44851;DHT22;30583;48.714;9.386;2023-02-10T05:37:49;-3274.10;71.30
44851;DHT22;30583;48.714;9.386;2023-02-10T05:40:14;-3274.40;70.40
44851;DHT22;30583;48.714;9.386;2023-02-10T05:42:40;-3274.30;70.60
44851;DHT22;30583;48.714;9.386;2023-02-10T05:45:06;-3274.00;70.90
44851;DHT22;30583;48.714;9.386;2023-02-10T05:47:31;-3274.20;71.00
44851;DHT22;30583;48.714;9.386;2023-02-10T05:49:57;-3274.30;70.90
44851;DHT22;30583;48.714;9.386;2023-02-10T05:52:23;-3274.10;71.40
44851;DHT22;30583;48.714;9.386;2023-02-10T05:54:48;-3274.20;70.90
44851;DHT22;30583;48.714;9.386;2023-02-10T05:57:14;-3273.80;71.70
44851;DHT22;30583;48.714;9.386;2023-02-10T05:59:39;-3274.00;71.60
44851;DHT22;30583;48.714;9.386;2023-02-10T06:02:06;-3274.00;71.50
44851;DHT22;30583;48.714;9.386;2023-02-10T06:04:32;-3273.80;72.20
44851;DHT22;30583;48.714;9.386;2023-02-10T06:06:58;-3273.80;72.90
44851;DHT22;30583;48.714;9.386;2023-02-10T06:09:24;-3274.10;71.70
44851;DHT22;30583;48.714;9.386;2023-02-10T06:11:50;-3274.10;71.60
44851;DHT22;30583;48.714;9.386;2023-02-10T06:14:17;-3274.20;70.90
44851;DHT22;30583;48.714;9.386;2023-02-10T06:16:42;-3273.90;71.60
44851;DHT22;30583;48.714;9.386;2023-02-10T06:19:08;-3274.20;71.80
44851;DHT22;30583;48.714;9.386;2023-02-10T06:21:34;-3274.10;71.30
44851;DHT22;30583;48.714;9.386;2023-02-10T06:23:59;-3273.80;71.90
44851;DHT22;30583;48.714;9.386;2023-02-10T06:26:25;-3273.90;72.40
44851;DHT22;30583;48.714;9.386;2023-02-10T06:28:53;-3273.80;72.50
44851;DHT22;30583;48.714;9.386;2023-02-10T06:31:19;-3273.90;72.70
44851;DHT22;30583;48.714;9.386;2023-02-10T06:33:45;-3273.80;71.60
44851;DHT22;30583;48.714;9.386;2023-02-10T06:36:10;-3273.30;72.70
44851;DHT22;30583;48.714;9.386;2023-02-10T06:38:37;-3273.60;73.20
44851;DHT22;30583;48.714;9.386;2023-02-10T06:41:03;-3273.50;73.30
44851;DHT22;30583;48.714;9.386;2023-02-10T06:43:28;-3273.80;72.60
44851;DHT22;30583;48.714;9.386;2023-02-10T06:45:54;-3274.10;71.30
44851;DHT22;30583;48.714;9.386;2023-02-10T06:48:20;-3273.50;72.80
44851;DHT22;30583;48.714;9.386;2023-02-10T06:50:45;-3273.90;73.10
44851;DHT22;30583;48.714;9.386;2023-02-10T06:53:11;-3274.00;72.30
44851;DHT22;30583;48.714;9.386;2023-02-10T06:55:37;-3274.00;72.00
44851;DHT22;30583;48.714;9.386;2023-02-10T06:58:03;-3274.30;71.30
44851;DHT22;30583;48.714;9.386;2023-02-10T07:00:29;-3274.10;71.40
44851;DHT22;30583;48.714;9.386;2023-02-10T07:02:57;-3275.20;75.70
44851;DHT22;30583;48.714;9.386;2023-02-10T07:05:22;-3275.60;71.40
44851;DHT22;30583;48.714;9.386;2023-02-10T07:07:48;-3275.60;69.60
44851;DHT22;30583;48.714;9.386;2023-02-10T07:10:19;-3275.60;68.80
44851;DHT22;30583;48.714;9.386;2023-02-10T07:12:45;-3275.60;68.80
44851;DHT22;30583;48.714;9.386;2023-02-10T07:15:13;-3274.80;68.40
44851;DHT22;30583;48.714;9.386;2023-02-10T07:17:38;-3274.20;70.20
44851;DHT22;30583;48.714;9.386;2023-02-10T07:20:05;-3274.20;71.60
44851;DHT22;30583;48.714;9.386;2023-02-10T07:22:31;-3274.40;71.30
44851;DHT22;30583;48.714;9.386;2023-02-10T07:24:56;-3274.40;71.50
44851;DHT22;30583;48.714;9.386;2023-02-10T07:27:22;-3274.60;70.90
44851;DHT22;30583;48.714;9.386;2023-02-10T07:29:48;-3274.50;70.50
44851;DHT22;30583;48.714;9.386;2023-02-10T07:32:14;-3274.50;71.00
44851;DHT22;30583;48.714;9.386;2023-02-10T07:34:40;-3274.60;70.50
44851;DHT22;30583;48.714;9.386;2023-02-10T07:37:06;-3274.70;70.50
44851;DHT22;30583;48.714;9.386;2023-02-10T07:39:32;-3274.70;70.20
44851;DHT22;30583;48.714;9.386;2023-02-10T07:41:57;-3274.60;70.80
44851;DHT22;30583;48.714;9.386;2023-02-10T07:44:23;-3274.60;71.00
44851;DHT22;30583;48.714;9.386;2023-02-10T07:46:51;-3274.80;70.60
44851;DHT22;30583;48.714;9.386;2023-02-10T07:49:18;-3274.70;70.70
44851;DHT22;30583;48.714;9.386;2023-02-10T07:51:43;-3274.80;70.80
44851;DHT22;30583;48.714;9.386;2023-02-10T07:54:09;-3275.00;70.10
44851;DHT22;30583;48.714;9.386;2023-02-10T07:56:35;-3274.90;70.30
44851;DHT22;30583;48.714;9.386;2023-02-10T07:59:00;-3275.00;70.60
44851;DHT22;30583;48.714;9.386;2023-02-10T08:01:26;-3275.00;70.70
44851;DHT22;30583;48.714;9.386;2023-02-10T08:03:52;-3275.00;70.30
44851;DHT22;30583;48.714;9.386;2023-02-10T08:06:21;-3275.10;70.50
44851;DHT22;30583;48.714;9.386;2023-02-10T08:08:48;-3275.10;70.50
44851;DHT22;30583;48.714;9.386;2023-02-10T08:11:14;-3275.00;70.80
44851;DHT22;30583;48.714;9.386;2023-02-10T08:13:40;-3275.10;71.00
44851;DHT22;30583;48.714;9.386;2023-02-10T08:16:06;-3275.20;70.80
44851;DHT22;30583;48.714;9.386;2023-02-10T08:18:34;-3275.50;70.40
44851;DHT22;30583;48.714;9.386;2023-02-10T08:21:00;-3275.70;69.40
44851;DHT22;30583;48.714;9.386;2023-02-10T08:23:26;-3275.70;69.10
44851;DHT22;30583;48.714;9.386;2023-02-10T08:25:51;-3275.70;69.40
44851;DHT22;30583;48.714;9.386;2023-02-10T08:28:18;-3275.40;70.10
44851;DHT22;30583;48.714;9.386;2023-02-10T08:30:44;-3275.30;70.90
44851;DHT22;30583;48.714;9.386;2023-02-10T08:33:09;-3275.50;70.60
44851;DHT22;30583;48.714;9.386;2023-02-10T08:35:39;-3275.90;70.10
44851;DHT22;30583;48.714;9.386;2023-02-10T08:38:05;-3276.00;69.70
44851;DHT22;30583;48.714;9.386;2023-02-10T08:40:32;-3275.80;69.80
44851;DHT22;30583;48.714;9.386;2023-02-10T08:42:58;-3275.80;70.20
44851;DHT22;30583;48.714;9.386;2023-02-10T08:45:23;-3275.80;70.10
44851;DHT22;30583;48.714;9.386;2023-02-10T08:47:49;-3275.90;70.30
44851;DHT22;30583;48.714;9.386;2023-02-10T08:50:15;-3276.10;70.00
44851;DHT22;30583;48.714;9.386;2023-02-10T08:52:40;-3276.00;69.50
44851;DHT22;30583;48.714;9.386;2023-02-10T08:55:06;-3276.20;69.70
44851;DHT22;30583;48.714;9.386;2023-02-10T08:57:33;-3276.50;68.70
44851;DHT22;30583;48.714;9.386;2023-02-10T08:59:59;-3276.50;68.40
44851;DHT22;30583;48.714;9.386;2023-02-10T09:02:25;-3276.50;69.00
44851;DHT22;30583;48.714;9.386;2023-02-10T09:04:51;-3276.60;68.50
44851;DHT22;30583;48.714;9.386;2023-02-10T09:07:16;-3276.50;68.70
44851;DHT22;30583;48.714;9.386;2023-02-10T09:09:42;-3276.50;69.50
44851;DHT22;30583;48.714;9.386;2023-02-10T09:12:09;-3276.50;69.00
44851;DHT22;30583;48.714;9.386;2023-02-10T09:14:37;0.00;68.20
44851;DHT22;30583;48.714;9.386;2023-02-10T09:17:03;0.20;67.80
44851;DHT22;30583;48.714;9.386;2023-02-10T09:19:29;0.20;67.90
44851;DHT22;30583;48.714;9.386;2023-02-10T09:21:54;0.20;67.60
44851;DHT22;30583;48.714;9.386;2023-02-10T09:24:23;0.20;68.10
44851;DHT22;30583;48.714;9.386;2023-02-10T09:26:49;0.50;67.60
44851;DHT22;30583;48.714;9.386;2023-02-10T09:29:15;0.30;67.60
44851;DHT22;30583;48.714;9.386;2023-02-10T09:31:40;0.40;67.60
44851;DHT22;30583;48.714;9.386;2023-02-10T09:34:06;0.30;67.90
44851;DHT22;30583;48.714;9.386;2023-02-10T09:36:32;0.50;67.70
44851;DHT22;30583;48.714;9.386;2023-02-10T09:38:58;0.50;67.20
44851;DHT22;30583;48.714;9.386;2023-02-10T09:44:23;1.00;66.40
44851;DHT22;30583;48.714;9.386;2023-02-10T09:46:55;1.10;66.40
44851;DHT22;30583;48.714;9.386;2023-02-10T09:55:38;2.70;62.90
44851;DHT22;30583;48.714;9.386;2023-02-10T10:00:52;3.20;61.80
44851;DHT22;30583;48.714;9.386;2023-02-10T10:03:24;3.70;60.40
44851;DHT22;30583;48.714;9.386;2023-02-10T10:05:57;3.40;59.80
44851;DHT22;30583;48.714;9.386;2023-02-10T10:11:32;4.60;58.30
44851;DHT22;30583;48.714;9.386;2023-02-10T10:13:59;4.80;57.30
44851;DHT22;30583;48.714;9.386;2023-02-10T10:19:06;4.80;56.00
44851;DHT22;30583;48.714;9.386;2023-02-10T10:21:53;5.10;56.50
44851;DHT22;30583;48.714;9.386;2023-02-10T10:24:42;5.40;54.90
44851;DHT22;30583;48.714;9.386;2023-02-10T10:27:36;5.50;53.50
44851;DHT22;30583;48.714;9.386;2023-02-10T10:30:13;5.60;55.00
44851;DHT22;30583;48.714;9.386;2023-02-10T10:32:52;6.20;54.10
44851;DHT22;30583;48.714;9.386;2023-02-10T10:35:25;6.60;52.50
44851;DHT22;30583;48.714;9.386;2023-02-10T10:37:52;5.70;53.90
44851;DHT22;30583;48.714;9.386;2023-02-10T10:40:23;5.90;53.50
44851;DHT22;30583;48.714;9.386;2023-02-10T10:42:53;6.00;53.20
44851;DHT22;30583;48.714;9.386;2023-02-10T10:45:36;6.50;52.10
44851;DHT22;30583;48.714;9.386;2023-02-10T10:48:19;6.70;51.80
44851;DHT22;30583;48.714;9.386;2023-02-10T10:50:49;7.20;51.70
44851;DHT22;30583;48.714;9.386;2023-02-10T10:53:18;7.40;50.20
44851;DHT22;30583;48.714;9.386;2023-02-10T10:55:53;7.50;50.60
44851;DHT22;30583;48.714;9.386;2023-02-10T10:58:27;7.70;49.80
44851;DHT22;30583;48.714;9.386;2023-02-10T11:00:55;7.90;48.90
44851;DHT22;30583;48.714;9.386;2023-02-10T11:03:22;8.00;48.80
44851;DHT22;30583;48.714;9.386;2023-02-10T11:05:58;8.20;48.60
44851;DHT22;30583;48.714;9.386;2023-02-10T11:08:31;8.10;48.50
44851;DHT22;30583;48.714;9.386;2023-02-10T11:10:59;8.30;48.40
44851;DHT22;30583;48.714;9.386;2023-02-10T11:13:29;8.70;47.10
44851;DHT22;30583;48.714;9.386;2023-02-10T11:16:13;8.80;47.40
44851;DHT22;30583;48.714;9.386;2023-02-10T11:18:54;8.70;47.40
44851;DHT22;30583;48.714;9.386;2023-02-10T11:21:20;8.60;46.60
44851;DHT22;30583;48.714;9.386;2023-02-10T11:23:51;8.60;46.50
44851;DHT22;30583;48.714;9.386;2023-02-10T11:26:22;8.80;46.20
44851;DHT22;30583;48.714;9.386;2023-02-10T11:28:48;8.70;46.90
44851;DHT22;30583;48.714;9.386;2023-02-10T11:31:32;9.10;46.10
44851;DHT22;30583;48.714;9.386;2023-02-10T11:34:13;8.90;46.60
44851;DHT22;30583;48.714;9.386;2023-02-10T11:36:41;9.60;45.40
44851;DHT22;30583;48.714;9.386;2023-02-10T11:39:25;9.20;45.40
44851;DHT22;30583;48.714;9.386;2023-02-10T11:41:52;9.90;46.20
44851;DHT22;30583;48.714;9.386;2023-02-10T11:46:59;9.40;44.20
44851;DHT22;30583;48.714;9.386;2023-02-10T11:49:24;9.50;44.90
44851;DHT22;30583;48.714;9.386;2023-02-10T11:51:54;9.40;44.00
44851;DHT22;30583;48.714;9.386;2023-02-10T11:54:21;9.90;42.90
44851;DHT22;30583;48.714;9.386;2023-02-10T12:11:54;10.80;40.10
44851;DHT22;30583;48.714;9.386;2023-02-10T12:23:08;11.40;37.10
44851;DHT22;30583;48.714;9.386;2023-02-10T12:28:54;11.70;37.60
44851;DHT22;30583;48.714;9.386;2023-02-10T12:31:31;11.00;37.60
44851;DHT22;30583;48.714;9.386;2023-02-10T12:45:07;11.60;35.40
44851;DHT22;30583;48.714;9.386;2023-02-10T12:47:50;11.90;35.70
44851;DHT22;30583;48.714;9.386;2023-02-10T12:53:25;12.30;35.00
44851;DHT22;30583;48.714;9.386;2023-02-10T12:58:40;12.50;33.50
44851;DHT22;30583;48.714;9.386;2023-02-10T13:01:34;12.40;33.60
44851;DHT22;30583;48.714;9.386;2023-02-10T13:06:44;12.60;33.00
44851;DHT22;30583;48.714;9.386;2023-02-10T13:12:10;12.30;33.20
44851;DHT22;30583;48.714;9.386;2023-02-10T13:14:40;12.70;33.80
44851;DHT22;30583;48.714;9.386;2023-02-10T13:17:08;12.70;32.50
44851;DHT22;30583;48.714;9.386;2023-02-10T13:19:39;13.20;32.80
44851;DHT22;30583;48.714;9.386;2023-02-10T13:25:21;13.00;31.70
44851;DHT22;30583;48.714;9.386;2023-02-10T13:30:51;13.20;32.30
44851;DHT22;30583;48.714;9.386;2023-02-10T13:36:19;12.20;32.40
44851;DHT22;30583;48.714;9.386;2023-02-10T13:38:58;12.70;32.70
44851;DHT22;30583;48.714;9.386;2023-02-10T13:41:29;12.40;33.20
44851;DHT22;30583;48.714;9.386;2023-02-10T13:44:17;12.20;33.70
44851;DHT22;30583;48.714;9.386;2023-02-10T13:46:46;12.20;33.50
44851;DHT22;30583;48.714;9.386;2023-02-10T13:49:17;12.70;33.00
44851;DHT22;30583;48.714;9.386;2023-02-10T13:51:43;12.80;32.30
44851;DHT22;30583;48.714;9.386;2023-02-10T13:54:28;13.00;32.20
44851;DHT22;30583;48.714;9.386;2023-02-10T13:56:55;12.60;32.20
44851;DHT22;30583;48.714;9.386;2023-02-10T14:01:49;11.70;33.50
44851;DHT22;30583;48.714;9.386;2023-02-10T14:06:46;12.90;32.20
44851;DHT22;30583;48.714;9.386;2023-02-10T14:12:02;12.20;33.30
44851;DHT22;30583;48.714;9.386;2023-02-10T14:14:30;12.50;33.20
44851;DHT22;30583;48.714;9.386;2023-02-10T14:17:05;12.20;32.60
44851;DHT22;30583;48.714;9.386;2023-02-10T14:19:42;12.80;33.10
44851;DHT22;30583;48.714;9.386;2023-02-10T14:22:21;12.60;32.90
44851;DHT22;30583;48.714;9.386;2023-02-10T14:24:48;13.00;32.10
44851;DHT22;30583;48.714;9.386;2023-02-10T14:27:14;12.60;32.60
44851;DHT22;30583;48.714;9.386;2023-02-10T14:29:52;13.00;32.30
44851;DHT22;30583;48.714;9.386;2023-02-10T14:32:18;12.80;32.70
44851;DHT22;30583;48.714;9.386;2023-02-10T14:35:03;12.40;33.50
44851;DHT22;30583;48.714;9.386;2023-02-10T14:37:31;12.70;33.40
44851;DHT22;30583;48.714;9.386;2023-02-10T14:39:59;13.30;32.90
44851;DHT22;30583;48.714;9.386;2023-02-10T14:42:28;13.10;32.10
44851;DHT22;30583;48.714;9.386;2023-02-10T14:44:59;13.20;32.80
44851;DHT22;30583;48.714;9.386;2023-02-10T14:47:37;13.00;33.10
44851;DHT22;30583;48.714;9.386;2023-02-10T14:50:05;13.00;33.10
44851;DHT22;30583;48.714;9.386;2023-02-10T14:52:36;12.70;32.90
44851;DHT22;30583;48.714;9.386;2023-02-10T14:55:34;12.90;33.40
44851;DHT22;30583;48.714;9.386;2023-02-10T14:58:13;12.80;32.50
44851;DHT22;30583;48.714;9.386;2023-02-10T15:00:40;12.60;32.60
44851;DHT22;30583;48.714;9.386;2023-02-10T15:03:11;12.00;33.00
44851;DHT22;30583;48.714;9.386;2023-02-10T15:05:43;12.20;32.60
44851;DHT22;30583;48.714;9.386;2023-02-10T15:08:16;11.80;33.20
44851;DHT22;30583;48.714;9.386;2023-02-10T15:10:46;11.70;33.10
44851;DHT22;30583;48.714;9.386;2023-02-10T15:13:15;12.00;32.50
44851;DHT22;30583;48.714;9.386;2023-02-10T15:15:45;12.30;33.00
44851;DHT22;30583;48.714;9.386;2023-02-10T15:18:13;12.10;33.40
44851;DHT22;30583;48.714;9.386;2023-02-10T15:20:51;12.20;32.30
44851;DHT22;30583;48.714;9.386;2023-02-10T15:23:17;11.80;33.20
44851;DHT22;30583;48.714;9.386;2023-02-10T15:25:43;11.90;33.00
44851;DHT22;30583;48.714;9.386;2023-02-10T15:38:41;11.50;33.30
44851;DHT22;30583;48.714;9.386;2023-02-10T15:43:55;10.50;34.20
44851;DHT22;30583;48.714;9.386;2023-02-10T15:46:23;10.30;34.60
44851;DHT22;30583;48.714;9.386;2023-02-10T15:48:49;10.50;34.70
44851;DHT22;30583;48.714;9.386;2023-02-10T15:51:25;10.40;35.00
44851;DHT22;30583;48.714;9.386;2023-02-10T15:53:53;10.20;35.70
44851;DHT22;30583;48.714;9.386;2023-02-10T15:56:23;9.80;36.30
44851;DHT22;30583;48.714;9.386;2023-02-10T15:58:50;9.90;36.10
44851;DHT22;30583;48.714;9.386;2023-02-10T16:01:16;9.40;36.80
44851;DHT22;30583;48.714;9.386;2023-02-10T16:03:41;9.10;37.60
44851;DHT22;30583;48.714;9.386;2023-02-10T16:06:15;8.90;38.20
44851;DHT22;30583;48.714;9.386;2023-02-10T16:08:43;8.60;39.20
44851;DHT22;30583;48.714;9.386;2023-02-10T16:11:12;8.20;40.50
44851;DHT22;30583;48.714;9.386;2023-02-10T16:13:37;8.00;41.10
44851;DHT22;30583;48.714;9.386;2023-02-10T16:16:05;7.80;41.40
44851;DHT22;30583;48.714;9.386;2023-02-10T16:18:37;7.60;41.80
44851;DHT22;30583;48.714;9.386;2023-02-10T16:21:02;7.10;42.90
44851;DHT22;30583;48.714;9.386;2023-02-10T16:23:30;6.80;44.30
44851;DHT22;30583;48.714;9.386;2023-02-10T16:25:57;7.00;44.20
44851;DHT22;30583;48.714;9.386;2023-02-10T16:28:22;7.20;44.10
44851;DHT22;30583;48.714;9.386;2023-02-10T16:30:48;7.10;43.80
44851;DHT22;30583;48.714;9.386;2023-02-10T16:33:14;7.10;44.70
44851;DHT22;30583;48.714;9.386;2023-02-10T16:35:42;6.90;44.90
44851;DHT22;30583;48.714;9.386;2023-02-10T16:38:09;6.70;45.50
44851;DHT22;30583;48.714;9.386;2023-02-10T16:40:36;6.50;46.10
44851;DHT22;30583;48.714;9.386;2023-02-10T16:43:03;6.30;46.80
44851;DHT22;30583;48.714;9.386;2023-02-10T16:45:31;6.20;47.30
44851;DHT22;30583;48.714;9.386;2023-02-10T16:47:58;6.00;47.90
44851;DHT22;30583;48.714;9.386;2023-02-10T16:50:35;6.00;48.40
44851;DHT22;30583;48.714;9.386;2023-02-10T16:53:02;5.70;49.20
44851;DHT22;30583;48.714;9.386;2023-02-10T16:55:33;5.70;49.20
44851;DHT22;30583;48.714;9.386;2023-02-10T16:57:59;5.70;49.40
44851;DHT22;30583;48.714;9.386;2023-02-10T17:00:25;5.80;49.30
44851;DHT22;30583;48.714;9.386;2023-02-10T17:02:51;5.60;50.00
44851;DHT22;30583;48.714;9.386;2023-02-10T17:05:17;5.40;50.40
44851;DHT22;30583;48.714;9.386;2023-02-10T17:07:44;5.30;50.70
44851;DHT22;30583;48.714;9.386;2023-02-10T17:10:17;5.50;50.50
44851;DHT22;30583;48.714;9.386;2023-02-10T17:12:43;5.60;50.20